Time;durP1;ratioP1;P1;durP2;ratioP2;P2;SDS_P1;SDS_P2;PMS_P1;PMS_P2;Temp;Humidity;BMP_temperature;BMP_pressure;BME280_temperature;BME280_humidity;BME280_pressure;Samples;Min_cycle;Max_cycle;Signal;HPM_P1;HPM_P2
2023/03/05 00:00:05;;;;;;;7.93;2.10;;;;;;;1.64;100.00;101268.25;6002967;28;20081;-72
2023/03/05 00:03:00;;;;;;;6.13;2.25;;;;;;;1.62;100.00;101269.25;6002626;28;20037;-72
2023/03/05 00:05:56;;;;;;;9.63;2.43;;;;;;;1.55;100.00;101260.06;6002973;28;20027;-72
2023/03/05 00:08:52;;;;;;;9.15;1.98;;;;;;;1.50;100.00;101249.81;6002936;28;20026;-72
2023/03/05 00:11:47;;;;;;;7.18;2.08;;;;;;;1.55;100.00;101263.47;5997468;28;20039;-73
2023/03/05 00:14:42;;;;;;;11.03;2.17;;;;;;;1.47;100.00;101241.28;6002694;28;20031;-73
2023/03/05 00:17:38;;;;;;;7.67;2.03;;;;;;;1.55;100.00;101260.06;6002824;28;20041;-73
2023/03/05 00:20:34;;;;;;;6.33;2.27;;;;;;;1.44;100.00;101237.03;6002983;28;20410;-72
2023/03/05 00:23:29;;;;;;;6.88;2.03;;;;;;;1.52;100.00;101257.59;5990636;28;20041;-72
2023/03/05 00:26:25;;;;;;;8.40;2.15;;;;;;;1.41;100.00;101239.81;6002717;28;20027;-74
2023/03/05 00:29:21;;;;;;;4.55;1.73;;;;;;;1.43;100.00;101239.72;6002629;28;20826;-72
2023/03/05 00:32:16;;;;;;;10.17;3.07;;;;;;;1.43;100.00;101232.75;6001018;28;20062;-74
2023/03/05 00:35:12;;;;;;;11.80;2.03;;;;;;;1.43;100.00;101231.91;6002463;28;20505;-73
2023/03/05 00:38:07;;;;;;;9.00;1.88;;;;;;;1.41;100.00;101221.53;6002526;28;20030;-72
2023/03/05 00:41:02;;;;;;;8.23;1.85;;;;;;;1.50;100.00;101228.06;6002610;28;20035;-73
2023/03/05 00:43:58;;;;;;;9.73;2.43;;;;;;;1.46;100.00;101221.31;5993110;28;20034;-72
2023/03/05 00:46:53;;;;;;;9.63;1.77;;;;;;;1.47;100.00;101223.00;6002392;28;20282;-74
2023/03/05 00:49:48;;;;;;;5.60;2.00;;;;;;;1.41;100.00;101220.69;6002356;28;20275;-73
2023/03/05 00:52:44;;;;;;;5.67;1.70;;;;;;;1.40;100.00;101206.78;6000192;28;20034;-73
2023/03/05 00:55:39;;;;;;;10.73;2.47;;;;;;;1.36;100.00;101204.41;6002498;28;20030;-73
2023/03/05 00:58:34;;;;;;;12.63;2.20;;;;;;;1.45;100.00;101203.91;6002302;28;20101;-73
2023/03/05 01:01:30;;;;;;;7.63;2.05;;;;;;;1.35;100.00;101194.84;5997634;28;20043;-73
2023/03/05 01:04:25;;;;;;;9.93;2.73;;;;;;;1.41;100.00;101191.94;5998093;28;20039;-72
2023/03/05 01:07:20;;;;;;;10.90;2.73;;;;;;;1.45;100.00;101203.91;5996034;28;20121;-73
2023/03/05 01:10:15;;;;;;;8.00;2.00;;;;;;;1.39;100.00;101199.00;6002226;28;20278;-74
2023/03/05 01:13:11;;;;;;;6.57;2.23;;;;;;;1.36;100.00;101183.50;5982977;28;20039;-72
2023/03/05 01:16:07;;;;;;;10.87;3.00;;;;;;;1.42;100.00;101183.16;5984277;28;20391;-73
2023/03/05 01:19:02;;;;;;;9.57;2.30;;;;;;;1.42;100.00;101177.94;6002166;28;20491;-72
2023/03/05 01:21:58;;;;;;;7.88;1.98;;;;;;;1.41;100.00;101178.88;6000782;28;20038;-74
2023/03/05 01:24:53;;;;;;;7.03;2.15;;;;;;;1.35;100.00;101166.13;6014409;28;20034;-72
2023/03/05 01:27:48;;;;;;;6.17;1.90;;;;;;;1.39;100.00;101160.66;6001894;28;20039;-73
2023/03/05 01:30:43;;;;;;;6.17;2.03;;;;;;;1.27;100.00;101144.75;6002248;28;20041;-73
2023/03/05 01:33:39;;;;;;;9.57;2.53;;;;;;;1.37;100.00;101159.91;5988334;28;20051;-74
2023/03/05 01:36:34;;;;;;;7.15;1.50;;;;;;;1.31;100.00;101141.91;6001592;28;20227;-74
2023/03/05 01:39:29;;;;;;;5.23;1.77;;;;;;;1.31;100.00;101134.06;6001803;28;20113;-73
2023/03/05 01:42:25;;;;;;;7.53;1.40;;;;;;;1.41;100.00;101144.91;6000035;28;20082;-74
2023/03/05 01:45:20;;;;;;;9.17;1.40;;;;;;;1.32;100.00;101129.69;6001927;28;20072;-73
2023/03/05 01:48:16;;;;;;;6.53;1.60;;;;;;;1.40;100.00;101140.59;6001666;28;20294;-72
2023/03/05 01:51:12;;;;;;;8.07;1.60;;;;;;;1.34;100.00;101144.38;6001901;28;20038;-73
2023/03/05 01:54:09;;;;;;;8.25;2.53;;;;;;;1.37;100.00;101143.38;6009141;28;20402;-72
2023/03/05 01:57:29;;;;;;;5.40;1.63;;;;;;;1.28;100.00;101117.72;6005137;28;20031;-73
2023/03/05 02:00:28;;;;;;;10.55;1.65;;;;;;;1.23;100.00;101112.72;6003939;28;20031;-73
2023/03/05 02:03:24;;;;;;;7.20;1.75;;;;;;;1.19;100.00;101099.00;6004909;28;20043;-72
2023/03/05 02:06:19;;;;;;;17.20;1.95;;;;;;;1.38;100.00;101124.19;6004442;28;20047;-74
2023/03/05 02:09:15;;;;;;;11.55;2.20;;;;;;;1.43;100.00;101122.16;6005718;28;20027;-72
2023/03/05 02:12:11;;;;;;;8.20;1.90;;;;;;;1.34;100.00;101110.41;6004491;28;20491;-73
2023/03/05 02:15:07;;;;;;;11.52;2.03;;;;;;;1.37;100.00;101104.19;6005330;28;20038;-73
2023/03/05 02:18:04;;;;;;;9.30;2.03;;;;;;;1.40;100.00;101111.88;6000821;28;20050;-73
2023/03/05 02:21:09;;;;;;;12.80;2.40;;;;;;;1.40;100.00;101106.66;6000572;28;20035;-73
2023/03/05 02:24:05;;;;;;;12.82;2.35;;;;;;;1.31;100.00;101089.66;5997915;28;20066;-72
2023/03/05 02:27:02;;;;;;;8.77;1.83;;;;;;;1.36;100.00;101094.69;6005197;28;20037;-72
2023/03/05 02:29:57;;;;;;;10.35;2.60;;;;;;;1.43;100.00;101090.81;6005142;28;20034;-72
2023/03/05 02:32:52;;;;;;;9.47;2.90;;;;;;;1.50;100.00;101098.25;5996912;28;20035;-72
2023/03/05 02:35:48;;;;;;;9.40;2.10;;;;;;;1.43;100.00;101086.44;5999318;28;20398;-72
2023/03/05 02:38:45;;;;;;;8.97;2.27;;;;;;;1.41;100.00;101085.69;6004799;28;20317;-71
2023/03/05 02:41:41;;;;;;;9.02;2.35;;;;;;;1.35;100.00;101087.75;6003315;28;20042;-71
2023/03/05 02:44:36;;;;;;;13.47;2.23;;;;;;;1.34;100.00;101080.84;6003252;28;20376;-73
2023/03/05 02:47:31;;;;;;;10.90;2.60;;;;;;;1.22;100.00;101065.81;6005045;28;20340;-72
2023/03/05 02:50:27;;;;;;;12.10;2.25;;;;;;;1.26;100.00;101083.00;6004850;28;20432;-72
2023/03/05 02:53:22;;;;;;;12.05;3.03;;;;;;;1.23;100.00;101072.69;5997074;28;20460;-71
2023/03/05 02:56:18;;;;;;;7.17;2.10;;;;;;;1.22;100.00;101071.88;6004914;28;20035;-71
2023/03/05 02:59:13;;;;;;;8.90;2.10;;;;;;;1.27;100.00;101075.09;6004490;28;20050;-72
2023/03/05 03:02:08;;;;;;;12.77;2.60;;;;;;;1.15;100.00;101066.09;6003311;28;20142;-70
2023/03/05 03:05:04;;;;;;;6.13;2.20;;;;;;;1.08;100.00;101056.91;6004622;28;20498;-72
2023/03/05 03:07:59;;;;;;;8.35;2.78;;;;;;;1.13;100.00;101062.75;6002033;28;20031;-72
2023/03/05 03:10:55;;;;;;;9.20;2.80;;;;;;;1.05;100.00;101040.53;5993935;28;20031;-72
2023/03/05 03:13:50;;;;;;;11.85;3.05;;;;;;;1.16;100.00;101046.91;6002815;28;20045;-71
2023/03/05 03:16:46;;;;;;;13.93;3.23;;;;;;;1.18;100.00;101039.84;5995932;28;20035;-73
2023/03/05 03:19:42;;;;;;;8.38;2.40;;;;;;;1.11;100.00;101033.22;5999514;28;20422;-73
2023/03/05 03:22:37;;;;;;;16.63;2.95;;;;;;;1.18;100.00;101039.00;5991906;28;20039;-70
2023/03/05 03:25:33;;;;;;;9.63;2.40;;;;;;;1.24;100.00;101045.66;6003825;28;20088;-72
2023/03/05 03:28:28;;;;;;;14.05;2.95;;;;;;;1.05;100.00;101010.06;6003868;28;20027;-71
2023/03/05 03:31:23;;;;;;;12.50;3.33;;;;;;;1.11;100.00;101025.41;6003426;28;20049;-73
2023/03/05 03:34:19;;;;;;;11.93;2.43;;;;;;;1.16;100.00;101019.94;6003099;28;20034;-73
2023/03/05 03:37:15;;;;;;;12.05;3.53;;;;;;;1.17;100.00;101019.88;6003567;28;20484;-72
2023/03/05 03:40:11;;;;;;;11.65;3.22;;;;;;;1.26;100.00;101029.00;6003779;28;20081;-72
2023/03/05 03:43:06;;;;;;;18.95;3.78;;;;;;;1.25;100.00;101029.09;6002929;28;20060;-72
2023/03/05 03:46:04;;;;;;;12.43;3.38;;;;;;;1.22;100.00;101013.56;6003720;28;20045;-72
2023/03/05 03:49:00;;;;;;;13.30;3.17;;;;;;;1.29;100.00;101017.53;6003510;28;20049;-70
2023/03/05 03:51:57;;;;;;;16.02;3.42;;;;;;;1.25;100.00;101013.41;6002360;28;20104;-73
2023/03/05 03:54:54;;;;;;;12.38;3.83;;;;;;;1.33;100.00;101012.09;6003525;28;20382;-73
2023/03/05 03:57:49;;;;;;;10.93;3.33;;;;;;;1.35;100.00;101005.00;5997359;28;20773;-72
2023/03/05 04:00:45;;;;;;;12.67;4.07;;;;;;;1.25;100.00;101002.97;6002947;28;20043;-71
2023/03/05 04:03:40;;;;;;;14.33;3.23;;;;;;;1.32;100.00;100993.88;6001638;28;20034;-72
2023/03/05 04:06:35;;;;;;;10.23;3.50;;;;;;;1.31;100.00;101000.00;6002660;28;20565;-72
2023/03/05 04:09:30;;;;;;;15.93;4.03;;;;;;;1.26;100.00;100981.13;6003030;28;20082;-72
2023/03/05 04:12:26;;;;;;;9.13;3.20;;;;;;;1.19;100.00;100976.25;6002401;28;20117;-71
2023/03/05 04:15:21;;;;;;;13.40;2.67;;;;;;;1.28;100.00;100989.75;6003175;28;20394;-72
2023/03/05 04:18:16;;;;;;;13.20;2.87;;;;;;;1.26;100.00;100973.28;6002558;28;20062;-71
2023/03/05 04:21:12;;;;;;;7.50;2.93;;;;;;;1.29;100.00;100973.13;6002499;28;20645;-71
2023/03/05 04:24:07;;;;;;;7.40;3.07;;;;;;;1.31;100.00;100973.91;5998002;28;20121;-73
2023/03/05 04:27:03;;;;;;;14.02;3.22;;;;;;;1.37;100.00;100976.19;6002692;28;20687;-73
2023/03/05 04:29:59;;;;;;;11.98;3.55;;;;;;;1.33;100.00;100972.06;6002831;28;20372;-71
2023/03/05 04:32:55;;;;;;;8.45;3.17;;;;;;;1.29;100.00;100957.47;6001439;28;20108;-71
2023/03/05 04:35:50;;;;;;;10.60;3.80;;;;;;;1.37;100.00;100970.97;6002821;28;20390;-73
2023/03/05 04:38:46;;;;;;;8.40;3.20;;;;;;;1.35;100.00;100970.22;6002646;28;20268;-71
2023/03/05 04:41:41;;;;;;;8.00;2.80;;;;;;;1.35;100.00;100968.44;6002604;28;20130;-71
2023/03/05 04:44:36;;;;;;;13.27;3.17;;;;;;;1.31;100.00;100950.38;6001069;28;20034;-70
2023/03/05 04:47:32;;;;;;;8.80;2.40;;;;;;;1.36;100.00;100958.84;6001499;28;20053;-71
2023/03/05 04:50:27;;;;;;;4.40;2.63;;;;;;;1.38;100.00;100959.59;6001682;28;20478;-72
2023/03/05 04:53:23;;;;;;;10.52;2.80;;;;;;;1.35;100.00;100962.38;6001720;28;20034;-73
2023/03/05 04:56:18;;;;;;;4.80;2.10;;;;;;;1.33;100.00;100952.03;6002319;28;20259;-73
2023/03/05 04:59:13;;;;;;;7.40;2.60;;;;;;;1.33;100.00;100948.56;6002563;28;20033;-72
2023/03/05 05:02:09;;;;;;;8.70;2.60;;;;;;;1.25;100.00;100929.84;6001472;28;20043;-73
2023/03/05 05:05:04;;;;;;;6.73;2.17;;;;;;;1.36;100.00;100945.78;6002518;28;20113;-71
2023/03/05 05:07:59;;;;;;;9.88;2.40;;;;;;;1.32;100.00;100931.19;6002292;28;20564;-73
2023/03/05 05:11:03;;;;;;;9.83;2.67;;;;;;;1.22;100.00;100922.16;6002324;28;20039;-71
2023/03/05 05:13:59;;;;;;;9.65;3.67;;;;;;;1.28;100.00;100940.94;6001067;28;20247;-70
2023/03/05 05:16:54;;;;;;;7.70;2.37;;;;;;;1.16;100.00;100923.34;6001958;28;20130;-73
2023/03/05 05:19:49;;;;;;;6.37;2.90;;;;;;;1.15;100.00;100914.66;6002358;28;20043;-72
2023/03/05 05:22:45;;;;;;;6.43;2.33;;;;;;;1.24;100.00;100935.97;6001527;28;20162;-72
2023/03/05 05:25:42;;;;;;;8.03;3.07;;;;;;;1.18;100.00;100927.56;6002011;28;20052;-73
2023/03/05 05:28:37;;;;;;;11.10;2.70;;;;;;;1.13;100.00;100918.28;6002453;28;20105;-72
2023/03/05 05:31:32;;;;;;;7.63;3.10;;;;;;;1.21;100.00;100934.38;6003639;28;20061;-71
2023/03/05 05:34:27;;;;;;;10.83;2.93;;;;;;;1.10;100.00;100927.13;6006108;28;20583;-73
2023/03/05 05:37:23;;;;;;;6.40;2.60;;;;;;;1.14;100.00;100931.22;6006609;28;20097;-73
2023/03/05 05:40:19;;;;;;;9.95;3.00;;;;;;;1.12;100.00;100920.03;6003849;28;20066;-74
2023/03/05 05:43:14;;;;;;;5.93;2.60;;;;;;;1.19;100.00;100928.41;6006024;28;20567;-73
2023/03/05 05:46:15;;;;;;;7.67;2.60;;;;;;;1.19;100.00;100929.25;6005486;28;20380;-73
2023/03/05 05:49:10;;;;;;;7.43;2.88;;;;;;;1.18;100.00;100922.31;6006318;28;20450;-74
2023/03/05 05:52:05;;;;;;;10.07;3.00;;;;;;;1.33;100.00;100931.13;6005537;28;20406;-73
2023/03/05 05:55:01;;;;;;;6.35;3.35;;;;;;;1.19;100.00;100897.06;6005767;28;20035;-72
2023/03/05 05:57:56;;;;;;;10.40;3.47;;;;;;;1.30;100.00;100917.38;6006357;28;20371;-72
2023/03/05 06:00:51;;;;;;;6.23;2.97;;;;;;;1.37;100.00;100918.72;6005892;28;20043;-72
2023/03/05 06:03:47;;;;;;;7.03;2.80;;;;;;;1.30;100.00;100913.00;6005284;28;20035;-73
2023/03/05 06:06:42;;;;;;;7.10;3.13;;;;;;;1.44;100.00;100925.31;6006528;28;20033;-73
2023/03/05 06:09:37;;;;;;;9.63;3.50;;;;;;;1.39;100.00;100919.47;6006590;28;20042;-72
2023/03/05 06:12:33;;;;;;;10.43;3.87;;;;;;;1.33;100.00;100912.00;6004595;28;20532;-73
2023/03/05 06:15:28;;;;;;;12.97;3.83;;;;;;;1.43;100.00;100934.06;6005626;28;20390;-73
2023/03/05 06:18:23;;;;;;;12.90;4.30;;;;;;;1.36;100.00;100901.38;6005843;28;20033;-73
2023/03/05 06:21:20;;;;;;;14.23;4.50;;;;;;;1.38;100.00;100907.34;6005461;28;20430;-72
2023/03/05 06:24:15;;;;;;;13.50;3.85;;;;;;;1.41;100.00;100912.41;6005005;28;20466;-73
2023/03/05 06:27:10;;;;;;;14.90;4.10;;;;;;;1.43;100.00;100913.16;6005343;28;20077;-72
2023/03/05 06:30:06;;;;;;;10.33;4.13;;;;;;;1.50;100.00;100922.34;6005319;28;20035;-72
2023/03/05 06:33:02;;;;;;;12.57;3.92;;;;;;;1.43;100.00;100907.94;6004347;28;20031;-73
2023/03/05 06:35:57;;;;;;;10.00;3.70;;;;;;;1.42;100.00;100908.88;6004845;28;20039;-72
2023/03/05 06:38:52;;;;;;;12.57;3.97;;;;;;;1.45;100.00;100898.25;6005495;28;20023;-73
2023/03/05 06:41:50;;;;;;;13.80;4.68;;;;;;;1.56;100.00;100916.78;6004136;28;20042;-73
2023/03/05 06:44:46;;;;;;;13.55;4.57;;;;;;;1.54;100.00;100916.03;6004952;28;20062;-72
2023/03/05 06:47:41;;;;;;;19.10;4.80;;;;;;;1.48;100.00;100900.69;6005175;28;20090;-74
2023/03/05 06:50:36;;;;;;;13.43;3.53;;;;;;;1.50;100.00;100898.84;6004321;28;20042;-72
2023/03/05 06:53:31;;;;;;;14.00;4.30;;;;;;;1.52;100.00;100905.66;6004438;28;20082;-73
2023/03/05 06:56:27;;;;;;;12.93;4.07;;;;;;;1.61;100.00;100906.94;6004382;28;20293;-74
2023/03/05 06:59:22;;;;;;;12.47;3.73;;;;;;;1.70;100.00;100911.66;6003994;28;20050;-73
2023/03/05 07:02:18;;;;;;;12.13;3.90;;;;;;;1.62;100.00;100901.63;6003960;28;20267;-74
2023/03/05 07:05:13;;;;;;;11.63;3.95;;;;;;;1.62;100.00;100895.56;6004189;28;20101;-73
2023/03/05 07:08:09;;;;;;;12.07;3.78;;;;;;;1.51;100.00;100897.91;6004424;28;20110;-73
2023/03/05 07:11:13;;;;;;;10.65;3.58;;;;;;;1.54;100.00;100890.75;6004479;28;20030;-73
2023/03/05 07:14:08;;;;;;;7.75;3.13;;;;;;;1.65;100.00;100913.69;6003691;28;20042;-73
2023/03/05 07:17:05;;;;;;;12.83;3.17;;;;;;;1.64;100.00;100917.22;6004508;28;20042;-72
2023/03/05 07:20:00;;;;;;;13.52;3.80;;;;;;;1.56;100.00;100901.13;6003866;28;20848;-71
2023/03/05 07:22:55;;;;;;;11.97;3.10;;;;;;;1.65;100.00;100903.22;6003499;28;20038;-73
2023/03/05 07:25:51;;;;;;;9.20;3.90;;;;;;;1.58;100.00;100886.19;6003666;28;20042;-73
2023/03/05 07:28:46;;;;;;;8.60;3.30;;;;;;;1.76;100.00;100896.50;6004324;28;20034;-71
2023/03/05 07:31:41;;;;;;;10.40;3.30;;;;;;;1.83;100.00;100901.34;6004217;28;20089;-72
2023/03/05 07:34:38;;;;;;;10.43;3.90;;;;;;;1.83;100.00;100883.91;6003317;28;20034;-72
2023/03/05 07:37:33;;;;;;;11.07;3.17;;;;;;;1.78;100.00;100878.09;6003634;28;20041;-73
2023/03/05 07:40:28;;;;;;;8.07;2.90;;;;;;;1.88;100.00;100891.47;6003747;28;20042;-72
2023/03/05 07:43:24;;;;;;;7.70;2.80;;;;;;;1.91;100.00;100894.75;6003246;28;20038;-71
2023/03/05 07:46:21;;;;;;;9.87;2.70;;;;;;;1.89;100.00;100885.31;6003189;28;20035;-73
2023/03/05 07:49:16;;;;;;;5.65;2.10;;;;;;;1.91;100.00;100873.84;6003191;28;20038;-73
2023/03/05 07:52:12;;;;;;;6.17;2.20;;;;;;;2.01;100.00;100892.50;6002058;28;20061;-73
2023/03/05 07:55:07;;;;;;;5.00;2.23;;;;;;;2.11;100.00;100886.63;6002968;28;20035;-75
2023/03/05 07:58:03;;;;;;;5.53;1.80;;;;;;;2.01;100.00;100867.16;6003269;28;20534;-73
2023/03/05 08:00:58;;;;;;;6.97;2.30;;;;;;;2.03;100.00;100869.69;6003379;28;20043;-73
2023/03/05 08:03:53;;;;;;;4.57;1.90;;;;;;;2.10;100.00;100882.31;6002611;28;20114;-73
2023/03/05 08:06:49;;;;;;;7.20;2.60;;;;;;;1.96;100.00;100871.81;6003195;28;20474;-73
2023/03/05 08:09:44;;;;;;;8.67;2.10;;;;;;;2.05;100.00;100881.75;6002934;28;20038;-74
2023/03/05 08:12:39;;;;;;;12.10;3.00;;;;;;;2.05;100.00;100887.00;6002488;28;20685;-74
2023/03/05 08:15:36;;;;;;;5.23;2.33;;;;;;;2.00;100.00;100868.09;6003232;28;20039;-71
2023/03/05 08:18:31;;;;;;;6.25;2.83;;;;;;;2.05;100.00;100881.75;6000919;28;20033;-72
2023/03/05 08:21:29;;;;;;;5.00;1.92;;;;;;;1.86;100.00;100875.03;5997437;28;20479;-72
2023/03/05 08:24:28;;;;;;;4.05;1.95;;;;;;;1.75;100.00;100852.13;5995905;28;20183;-72
2023/03/05 08:27:23;;;;;;;6.43;2.47;;;;;;;1.98;100.00;100872.59;6002740;28;20459;-73
2023/03/05 08:30:21;;;;;;;6.57;1.80;;;;;;;1.98;100.00;100849.06;6002450;28;20039;-72
2023/03/05 08:33:17;;;;;;;7.75;2.30;;;;;;;2.10;100.00;100853.56;6001246;28;20121;-71
2023/03/05 08:36:12;;;;;;;6.80;2.05;;;;;;;2.06;100.00;100864.28;6002124;28;20039;-71
2023/03/05 08:39:08;;;;;;;8.52;2.33;;;;;;;2.18;100.00;100869.66;6002246;28;20391;-71
2023/03/05 08:42:04;;;;;;;6.20;2.00;;;;;;;2.24;100.00;100865.84;6001667;28;20039;-72
2023/03/05 08:44:59;;;;;;;4.43;1.60;;;;;;;2.28;100.00;100857.72;6001606;28;20039;-72
2023/03/05 08:47:56;;;;;;;10.03;2.27;;;;;;;2.35;100.00;100861.66;6002451;28;20031;-71
2023/03/05 08:50:52;;;;;;;3.38;1.52;;;;;;;2.49;100.00;100865.25;6001406;28;20058;-72
2023/03/05 08:53:47;;;;;;;4.15;1.67;;;;;;;2.63;100.00;100860.03;6001424;28;20031;-72
2023/03/05 08:56:42;;;;;;;7.50;2.40;;;;;;;2.79;100.00;100863.41;6001992;28;20030;-73
2023/03/05 08:59:37;;;;;;;6.13;1.60;;;;;;;2.74;100.00;100844.53;6002326;28;20045;-72
2023/03/05 09:02:34;;;;;;;3.47;1.40;;;;;;;2.71;100.00;100849.94;6001445;28;20039;-72
2023/03/05 09:05:29;;;;;;;4.13;1.75;;;;;;;2.72;100.00;100862.91;6004865;28;20042;-71
2023/03/05 09:08:24;;;;;;;3.40;1.60;;;;;;;2.46;100.00;100834.00;6006672;28;20035;-72
2023/03/05 09:11:20;;;;;;;13.03;2.30;;;;;;;2.42;100.00;100855.13;6006930;28;20043;-72
2023/03/05 09:14:16;;;;;;;4.97;1.77;;;;;;;2.32;100.00;100861.84;6005904;28;20030;-73
2023/03/05 09:17:11;;;;;;;6.43;1.80;;;;;;;2.30;100.00;100842.78;6006924;28;20038;-71
2023/03/05 09:20:10;;;;;;;4.00;1.43;;;;;;;2.13;100.00;100831.63;6006575;28;20074;-72
2023/03/05 09:23:05;;;;;;;2.85;1.42;;;;;;;2.22;100.00;100845.00;6004615;28;20038;-71
2023/03/05 09:26:01;;;;;;;5.67;1.60;;;;;;;2.19;100.00;100834.72;6006395;28;20031;-70
2023/03/05 09:28:57;;;;;;;2.58;1.25;;;;;;;2.36;100.00;100823.28;6004859;28;20034;-71
2023/03/05 09:31:52;;;;;;;8.02;1.52;;;;;;;2.61;100.00;100843.59;6005670;28;20031;-74
2023/03/05 09:34:47;;;;;;;8.18;1.73;;;;;;;2.76;100.00;100826.94;6005006;28;20035;-72
2023/03/05 09:37:43;;;;;;;5.20;1.73;;;;;;;2.82;100.00;100831.81;6005985;28;20034;-71
2023/03/05 09:41:06;;;;;;;5.93;1.90;;;;;;;3.00;97.93;100839.34;6006197;28;20030;-71
2023/03/05 09:44:40;;;;;;;4.80;1.60;;;;;;;3.10;97.08;100826.50;6004467;28;20035;-72
2023/03/05 09:47:52;;;;;;;3.35;1.40;;;;;;;3.27;93.80;100834.16;6005772;28;20134;-73
2023/03/05 09:50:51;;;;;;;4.10;1.40;;;;;;;3.46;93.43;100829.44;6021050;28;20034;-71
2023/03/05 09:53:52;;;;;;;5.93;1.58;;;;;;;3.60;94.02;100815.44;6003929;28;20447;-73
2023/03/05 09:56:52;;;;;;;2.10;1.00;;;;;;;3.55;90.11;100831.47;6018740;28;20049;-71
2023/03/05 09:59:50;;;;;;;3.47;1.02;;;;;;;3.46;89.22;100824.19;6020626;28;20110;-71
2023/03/05 10:02:54;;;;;;;2.42;0.95;;;;;;;3.48;86.54;100817.06;6019490;28;20034;-71
2023/03/05 10:06:15;;;;;;;2.65;0.80;;;;;;;3.89;85.89;100829.28;6005669;28;20042;-73
2023/03/05 10:09:10;;;;;;;2.40;1.00;;;;;;;3.82;85.81;100830.63;6005771;28;20038;-73
2023/03/05 10:12:19;;;;;;;3.53;0.95;;;;;;;3.86;86.82;100821.63;6004580;28;20403;-73
2023/03/05 10:15:21;;;;;;;8.05;0.93;;;;;;;3.54;87.80;100821.06;5994281;28;20503;-70
2023/03/05 10:18:36;;;;;;;6.25;1.20;;;;;;;3.44;89.26;100826.09;6002151;28;20525;-72
2023/03/05 10:22:00;;;;;;;4.43;1.30;;;;;;;3.33;90.22;100828.53;6001272;28;20101;-74
2023/03/05 10:25:20;;;;;;;2.58;1.02;;;;;;;3.31;90.69;100825.19;5989145;28;20090;-73
2023/03/05 10:28:21;;;;;;;2.78;1.20;;;;;;;3.24;91.52;100820.41;6004129;28;20379;-73
2023/03/05 10:31:34;;;;;;;2.15;1.05;;;;;;;3.30;90.63;100818.25;6003962;28;20030;-72
2023/03/05 10:35:04;;;;;;;3.40;1.35;;;;;;;3.34;90.92;100809.25;6003300;28;20039;-73
2023/03/05 10:38:13;;;;;;;4.80;1.25;;;;;;;3.32;90.92;100819.00;6001291;28;20031;-73
2023/03/05 10:41:25;;;;;;;2.60;1.40;;;;;;;3.40;92.32;100811.47;6002961;28;20038;-74
2023/03/05 10:44:30;;;;;;;2.92;1.30;;;;;;;3.53;91.22;100808.94;5999655;28;20031;-72
2023/03/05 10:47:32;;;;;;;4.43;2.30;;;;;;;3.38;88.51;100815.13;6003845;28;20039;-72
2023/03/05 10:50:33;;;;;;;5.85;1.17;;;;;;;3.23;89.42;100785.53;6003392;28;20042;-73
2023/03/05 10:53:52;;;;;;;4.72;1.27;;;;;;;3.34;88.65;100795.31;6001556;28;20562;-73
2023/03/05 10:56:48;;;;;;;3.80;0.95;;;;;;;3.50;88.46;100794.25;6002018;28;20058;-74
2023/03/05 10:59:48;;;;;;;4.30;0.93;;;;;;;3.51;87.52;100761.84;6003474;28;20092;-73
2023/03/05 11:02:57;;;;;;;3.20;1.13;;;;;;;3.75;86.23;100769.84;6000424;28;20114;-73
2023/03/05 11:06:01;;;;;;;4.35;0.90;;;;;;;3.86;85.13;100777.03;6002634;28;20037;-71
2023/03/05 11:09:18;;;;;;;2.55;1.10;;;;;;;4.19;86.55;100780.84;6003236;28;20027;-73
2023/03/05 11:12:15;;;;;;;5.47;1.15;;;;;;;4.05;83.17;100777.50;6001793;28;20104;-73
2023/03/05 11:15:13;;;;;;;9.85;1.40;;;;;;;3.93;83.44;100765.19;6002245;28;20070;-73
2023/03/05 11:18:20;;;;;;;5.13;1.30;;;;;;;3.86;84.10;100764.75;6001599;28;20117;-73
2023/03/05 11:21:26;;;;;;;5.22;0.95;;;;;;;3.64;83.24;100754.03;6002659;28;20383;-71
2023/03/05 11:24:21;;;;;;;2.72;1.17;;;;;;;3.79;85.16;100758.25;6002181;28;20478;-72
2023/03/05 11:27:34;;;;;;;1.40;0.83;;;;;;;3.96;85.83;100739.59;6003220;28;20041;-72
2023/03/05 11:30:36;;;;;;;4.07;1.08;;;;;;;4.06;83.58;100740.66;6019165;28;20030;-72
2023/03/05 11:33:32;;;;;;;3.00;0.85;;;;;;;4.06;82.58;100737.19;6002785;28;20038;-73
2023/03/05 11:36:36;;;;;;;3.30;0.63;;;;;;;4.10;82.74;100730.78;6001577;28;20490;-74
2023/03/05 11:39:35;;;;;;;1.15;0.50;;;;;;;4.23;82.38;100731.63;6003478;28;20062;-72
2023/03/05 11:42:30;;;;;;;3.47;1.00;;;;;;;4.18;82.07;100724.06;6002121;28;20031;-74
2023/03/05 11:45:26;;;;;;;2.20;0.60;;;;;;;4.23;82.04;100721.13;6002895;28;20035;-73
2023/03/05 11:48:29;;;;;;;1.83;0.73;;;;;;;4.22;80.64;100720.28;6002642;28;20026;-74
2023/03/05 11:51:30;;;;;;;3.05;0.80;;;;;;;4.08;81.22;100720.38;6003095;28;20085;-73
2023/03/05 11:54:30;;;;;;;1.38;0.45;;;;;;;4.04;80.60;100720.72;6000945;28;20079;-73
2023/03/05 11:57:27;;;;;;;1.92;0.80;;;;;;;3.82;79.69;100702.97;5994583;28;20106;-74
2023/03/05 12:00:30;;;;;;;3.67;0.70;;;;;;;3.82;79.96;100716.06;6001310;28;20402;-73
2023/03/05 12:03:34;;;;;;;16.63;1.30;;;;;;;3.96;82.44;100712.53;6001656;28;20372;-73
2023/03/05 12:06:48;;;;;;;6.45;1.05;;;;;;;3.94;81.94;100698.69;5991450;28;20047;-73
2023/03/05 12:09:48;;;;;;;1.73;0.60;;;;;;;4.24;82.03;100707.03;5998148;28;20041;-72
2023/03/05 12:12:57;;;;;;;2.42;0.85;;;;;;;4.33;79.81;100703.78;5997737;28;20045;-72
2023/03/05 12:16:08;;;;;;;4.38;0.95;;;;;;;4.56;81.52;100694.31;5999625;28;20474;-72
2023/03/05 12:19:20;;;;;;;2.63;1.60;;;;;;;4.49;79.07;100678.16;5999340;28;20035;-73
2023/03/05 12:22:32;;;;;;;2.22;0.73;;;;;;;4.57;79.42;100673.19;5997299;28;20053;-72
2023/03/05 12:25:45;;;;;;;5.40;0.93;;;;;;;4.75;80.08;100685.03;5995017;28;20061;-71
2023/03/05 12:28:40;;;;;;;4.53;0.95;;;;;;;4.68;79.12;100686.41;5987846;28;20026;-70
2023/03/05 12:31:37;;;;;;;4.55;0.75;;;;;;;4.64;79.83;100679.72;5999716;28;20043;-70
2023/03/05 12:34:39;;;;;;;1.52;0.45;;;;;;;4.70;79.66;100668.72;5998460;28;20053;-71
2023/03/05 12:37:34;;;;;;;2.10;0.57;;;;;;;4.96;80.51;100663.41;5999487;28;20038;-73
2023/03/05 12:40:33;;;;;;;3.40;0.50;;;;;;;5.13;79.00;100655.13;5998905;28;20042;-74
2023/03/05 12:43:30;;;;;;;2.90;0.82;;;;;;;5.07;78.73;100647.69;5996838;28;20041;-73
2023/03/05 12:46:27;;;;;;;2.30;0.65;;;;;;;4.98;77.77;100645.72;5999182;28;20035;-73
2023/03/05 12:49:25;;;;;;;3.25;0.52;;;;;;;4.85;77.68;100644.94;5999036;28;20395;-73
2023/03/05 12:52:24;;;;;;;1.58;0.47;;;;;;;4.68;76.94;100630.41;5998695;28;20566;-71
2023/03/05 12:55:25;;;;;;;4.00;0.60;;;;;;;4.55;75.96;100643.59;5998871;28;20395;-74
2023/03/05 12:58:39;;;;;;;3.85;0.68;;;;;;;4.65;76.26;100633.25;6000344;28;20047;-73
2023/03/05 13:01:41;;;;;;;1.15;0.55;;;;;;;4.67;75.63;100629.56;6001241;28;20347;-74
2023/03/05 13:04:43;;;;;;;1.60;0.47;;;;;;;4.75;75.63;100613.28;6001488;28;20034;-73
2023/03/05 13:07:38;;;;;;;1.63;0.57;;;;;;;4.79;76.23;100626.06;6000430;28;20035;-73
2023/03/05 13:10:33;;;;;;;0.80;0.50;;;;;;;4.88;75.68;100613.22;6000305;28;20031;-73
2023/03/05 13:13:32;;;;;;;0.30;0.20;;;;;;;4.93;74.59;100616.31;6001230;28;20035;-73
2023/03/05 13:16:30;;;;;;;0.38;0.25;;;;;;;4.98;73.45;100611.56;6000612;28;20045;-73
2023/03/05 13:19:26;;;;;;;0.60;0.50;;;;;;;5.12;72.81;100611.41;5993832;28;20117;-72
2023/03/05 13:22:23;;;;;;;4.00;0.70;;;;;;;5.13;72.73;100602.56;6000777;28;20730;-73
2023/03/05 13:25:19;;;;;;;2.58;0.68;;;;;;;5.03;73.06;100594.50;6001570;28;20035;-73
2023/03/05 13:28:16;;;;;;;1.42;0.57;;;;;;;5.06;72.45;100591.66;6001114;28;20062;-72
2023/03/05 13:31:17;;;;;;;1.83;0.60;;;;;;;4.93;73.92;100566.41;5999668;28;20121;-73
2023/03/05 13:34:29;;;;;;;2.00;0.95;;;;;;;5.01;75.29;100599.06;5999994;28;20178;-73
2023/03/05 13:37:30;;;;;;;2.60;1.27;;;;;;;4.92;75.73;100588.41;6001449;28;20034;-72
2023/03/05 13:40:28;;;;;;;6.13;1.15;;;;;;;4.76;75.93;100583.41;6001567;28;20038;-72
2023/03/05 13:43:23;;;;;;;2.17;0.90;;;;;;;4.49;76.56;100570.50;6000876;28;20042;-73
2023/03/05 13:46:33;;;;;;;3.50;1.03;;;;;;;4.42;77.57;100573.69;6001715;28;20475;-74